sensor_id;sensor_type;location;lat;lon;timestamp;pressure;altitude;pressure_sealevel;temperature;humidity
59419;BME280;45224;50.904;6.038;2023-02-12T00:01:14;101981.50;;;7.39;100.00
59419;BME280;45224;50.904;6.038;2023-02-12T00:02:45;101978.63;;;7.33;100.00
59419;BME280;45224;50.904;6.038;2023-02-12T00:04:15;101974.25;;;7.30;100.00
59419;BME280;45224;50.904;6.038;2023-02-12T00:05:46;101976.59;;;7.26;100.00
59419;BME280;45224;50.904;6.038;2023-02-12T00:07:16;101973.44;;;7.31;100.00
59419;BME280;45224;50.904;6.038;2023-02-12T00:08:52;101966.44;;;7.29;100.00
59419;BME280;45224;50.904;6.038;2023-02-12T00:10:23;101976.91;;;7.32;100.00
59419;BME280;45224;50.904;6.038;2023-02-12T00:11:53;101977.75;;;7.32;100.00
59419;BME280;45224;50.904;6.038;2023-02-12T00:13:24;101979.38;;;7.30;100.00
59419;BME280;45224;50.904;6.038;2023-02-12T00:14:54;101968.94;;;7.27;100.00
59419;BME280;45224;50.904;6.038;2023-02-12T00:16:27;101972.69;;;7.34;100.00
59419;BME280;45224;50.904;6.038;2023-02-12T00:17:58;101973.66;;;7.36;100.00
59419;BME280;45224;50.904;6.038;2023-02-12T00:19:29;101978.63;;;7.33;100.00
59419;BME280;45224;50.904;6.038;2023-02-12T00:21:00;101977.03;;;7.35;100.00
59419;BME280;45224;50.904;6.038;2023-02-12T00:22:31;101977.03;;;7.35;100.00
59419;BME280;45224;50.904;6.038;2023-02-12T00:24:02;101974.47;;;7.35;100.00
59419;BME280;45224;50.904;6.038;2023-02-12T00:25:33;101981.38;;;7.36;100.00
59419;BME280;45224;50.904;6.038;2023-02-12T00:27:04;101983.00;;;7.34;100.00
59419;BME280;45224;50.904;6.038;2023-02-12T00:28:34;101979.47;;;7.32;100.00
59419;BME280;45224;50.904;6.038;2023-02-12T00:30:06;101976.91;;;7.32;100.00
59419;BME280;45224;50.904;6.038;2023-02-12T00:31:36;101976.91;;;7.32;100.00
59419;BME280;45224;50.904;6.038;2023-02-12T00:33:07;101988.94;;;7.33;100.00
59419;BME280;45224;50.904;6.038;2023-02-12T00:34:37;101978.78;;;7.36;100.00
59419;BME280;45224;50.904;6.038;2023-02-12T00:36:08;101988.38;;;7.39;100.00
59419;BME280;45224;50.904;6.038;2023-02-12T00:37:40;101986.50;;;7.36;100.00
59419;BME280;45224;50.904;6.038;2023-02-12T00:39:10;101985.72;;;7.37;100.00
59419;BME280;45224;50.904;6.038;2023-02-12T00:40:41;101991.56;;;7.35;100.00
59419;BME280;45224;50.904;6.038;2023-02-12T00:42:12;101992.63;;;7.38;100.00
59419;BME280;45224;50.904;6.038;2023-02-12T00:43:43;101996.00;;;7.37;100.00
59419;BME280;45224;50.904;6.038;2023-02-12T00:45:13;101983.94;;;7.36;100.00
59419;BME280;45224;50.904;6.038;2023-02-12T00:46:43;101983.94;;;7.36;100.00
59419;BME280;45224;50.904;6.038;2023-02-12T00:48:15;101984.00;;;7.38;100.00
59419;BME280;45224;50.904;6.038;2023-02-12T00:49:45;101985.78;;;7.39;100.00
59419;BME280;45224;50.904;6.038;2023-02-12T00:51:16;101994.53;;;7.42;100.00
59419;BME280;45224;50.904;6.038;2023-02-12T00:52:46;101978.78;;;7.36;100.00
59419;BME280;45224;50.904;6.038;2023-02-12T00:54:17;101989.31;;;7.41;100.00
59419;BME280;45224;50.904;6.038;2023-02-12T00:55:47;101988.38;;;7.39;100.00
59419;BME280;45224;50.904;6.038;2023-02-12T00:57:18;101989.69;;;7.30;100.00
59419;BME280;45224;50.904;6.038;2023-02-12T00:58:48;101985.56;;;7.34;100.00
59419;BME280;45224;50.904;6.038;2023-02-12T01:00:19;101985.56;;;7.34;100.00
59419;BME280;45224;50.904;6.038;2023-02-12T01:01:50;101992.63;;;7.38;100.00
59419;BME280;45224;50.904;6.038;2023-02-12T01:03:21;101985.06;;;7.41;100.00
59419;BME280;45224;50.904;6.038;2023-02-12T01:04:52;101979.75;;;7.38;100.00
59419;BME280;45224;50.904;6.038;2023-02-12T01:06:22;101981.28;;;7.35;100.00
59419;BME280;45224;50.904;6.038;2023-02-12T01:07:53;101968.34;;;7.33;100.00
59419;BME280;45224;50.904;6.038;2023-02-12T01:09:23;101975.78;;;7.27;100.00
59419;BME280;45224;50.904;6.038;2023-02-12T01:10:56;101980.13;;;7.28;100.00
59419;BME280;45224;50.904;6.038;2023-02-12T01:12:27;101984.47;;;7.29;100.00
59419;BME280;45224;50.904;6.038;2023-02-12T01:13:58;101982.75;;;7.29;100.00
59419;BME280;45224;50.904;6.038;2023-02-12T01:15:29;101980.94;;;7.27;100.00
59419;BME280;45224;50.904;6.038;2023-02-12T01:17:00;101982.53;;;7.25;100.00
59419;BME280;45224;50.904;6.038;2023-02-12T01:18:30;101976.59;;;7.26;100.00
59419;BME280;45224;50.904;6.038;2023-02-12T01:20:00;101979.97;;;7.25;100.00
59419;BME280;45224;50.904;6.038;2023-02-12T01:21:33;101972.09;;;7.22;100.00
59419;BME280;45224;50.904;6.038;2023-02-12T01:23:04;101974.97;;;7.28;100.00
59419;BME280;45224;50.904;6.038;2023-02-12T01:24:36;101974.81;;;7.25;100.00
59419;BME280;45224;50.904;6.038;2023-02-12T01:26:07;101978.44;;;7.28;100.00
59419;BME280;45224;50.904;6.038;2023-02-12T01:27:40;101962.78;;;7.24;100.00
59419;BME280;45224;50.904;6.038;2023-02-12T01:29:10;101966.16;;;7.23;100.00
59419;BME280;45224;50.904;6.038;2023-02-12T01:30:41;101973.06;;;7.24;100.00
59419;BME280;45224;50.904;6.038;2023-02-12T01:32:11;101966.81;;;7.19;100.00
59419;BME280;45224;50.904;6.038;2023-02-12T01:33:43;101971.38;;;7.24;100.00
59419;BME280;45224;50.904;6.038;2023-02-12T01:35:14;101967.94;;;7.24;100.00
59419;BME280;45224;50.904;6.038;2023-02-12T01:36:45;101966.16;;;7.23;100.00
59419;BME280;45224;50.904;6.038;2023-02-12T01:38:15;101973.22;;;7.27;100.00
59419;BME280;45224;50.904;6.038;2023-02-12T01:39:46;101966.44;;;7.29;100.00
59419;BME280;45224;50.904;6.038;2023-02-12T01:41:21;101969.97;;;7.31;100.00
59419;BME280;45224;50.904;6.038;2023-02-12T01:42:52;101969.25;;;7.34;100.00
59419;BME280;45224;50.904;6.038;2023-02-12T01:44:26;101957.09;;;7.31;100.00
59419;BME280;45224;50.904;6.038;2023-02-12T01:45:59;101965.13;;;7.37;100.00
59419;BME280;45224;50.904;6.038;2023-02-12T01:47:29;101963.50;;;7.39;100.00
59419;BME280;45224;50.904;6.038;2023-02-12T01:49:02;101966.06;;;7.39;100.00
59419;BME280;45224;50.904;6.038;2023-02-12T01:50:34;101963.50;;;7.39;100.00
59419;BME280;45224;50.904;6.038;2023-02-12T01:52:22;101961.75;;;7.38;100.00
59419;BME280;45224;50.904;6.038;2023-02-12T01:53:55;101961.75;;;7.38;100.00
59419;BME280;45224;50.904;6.038;2023-02-12T01:55:28;101949.69;;;7.37;100.00
59419;BME280;45224;50.904;6.038;2023-02-12T01:57:01;101956.59;;;7.38;100.00
59419;BME280;45224;50.904;6.038;2023-02-12T01:58:36;101960.84;;;7.38;100.00
59419;BME280;45224;50.904;6.038;2023-02-12T02:00:10;101954.84;;;7.37;100.00
59419;BME280;45224;50.904;6.038;2023-02-12T02:01:50;101955.69;;;7.38;100.00
59419;BME280;45224;50.904;6.038;2023-02-12T02:03:20;101961.00;;;7.41;100.00
59419;BME280;45224;50.904;6.038;2023-02-12T02:04:55;101959.34;;;7.41;100.00
59419;BME280;45224;50.904;6.038;2023-02-12T02:06:31;101954.97;;;7.40;100.00
59419;BME280;45224;50.904;6.038;2023-02-12T02:08:03;101954.03;;;7.38;100.00
59419;BME280;45224;50.904;6.038;2023-02-12T02:09:35;101946.97;;;7.34;100.00
59419;BME280;45224;50.904;6.038;2023-02-12T02:11:07;101953.19;;;7.39;100.00
59419;BME280;45224;50.904;6.038;2023-02-12T02:12:57;101951.16;;;7.32;100.00
59419;BME280;45224;50.904;6.038;2023-02-12T02:14:47;101953.50;;;7.27;100.00
59419;BME280;45224;50.904;6.038;2023-02-12T02:16:25;101953.50;;;7.27;100.00
59419;BME280;45224;50.904;6.038;2023-02-12T02:18:11;101946.44;;;7.23;100.00
59419;BME280;45224;50.904;6.038;2023-02-12T02:29:51;101960.84;;;7.20;100.00
59419;BME280;45224;50.904;6.038;2023-02-12T02:33:28;101948.91;;;7.20;100.00
59419;BME280;45224;50.904;6.038;2023-02-12T02:40:44;101952.03;;;7.15;100.00
59419;BME280;45224;50.904;6.038;2023-02-12T02:41:58;101953.03;;;7.00;100.00
59419;BME280;45224;50.904;6.038;2023-02-12T02:43:35;101960.19;;;7.06;100.00
59419;BME280;45224;50.904;6.038;2023-02-12T02:45:12;101945.56;;;7.05;100.00
59419;BME280;45224;50.904;6.038;2023-02-12T02:46:49;101940.56;;;7.08;100.00
59419;BME280;45224;50.904;6.038;2023-02-12T02:48:24;101944.97;;;7.10;100.00
59419;BME280;45224;50.904;6.038;2023-02-12T02:50:00;101942.34;;;7.09;100.00
59419;BME280;45224;50.904;6.038;2023-02-12T02:51:35;101938.72;;;7.05;100.00
59419;BME280;45224;50.904;6.038;2023-02-12T02:53:11;101937.78;;;7.03;100.00
59419;BME280;45224;50.904;6.038;2023-02-12T02:54:47;101946.44;;;7.05;100.00
59419;BME280;45224;50.904;6.038;2023-02-12T02:56:20;101941.13;;;7.02;100.00
59419;BME280;45224;50.904;6.038;2023-02-12T02:58:49;101935.13;;;7.02;100.00
59419;BME280;45224;50.904;6.038;2023-02-12T03:00:22;101940.88;;;6.96;100.00
59419;BME280;45224;50.904;6.038;2023-02-12T03:01:59;101939.97;;;6.95;100.00
59419;BME280;45224;50.904;6.038;2023-02-12T03:06:01;101935.63;;;6.94;100.00
59419;BME280;45224;50.904;6.038;2023-02-12T03:08:04;101947.81;;;6.99;100.00
59419;BME280;45224;50.904;6.038;2023-02-12T03:09:44;101940.72;;;6.93;100.00
59419;BME280;45224;50.904;6.038;2023-02-12T03:11:40;101946.00;;;6.96;100.00
59419;BME280;45224;50.904;6.038;2023-02-12T03:13:19;101935.56;;;6.93;100.00
59419;BME280;45224;50.904;6.038;2023-02-12T03:15:00;101945.78;;;6.91;100.00
59419;BME280;45224;50.904;6.038;2023-02-12T03:16:59;101943.13;;;6.90;100.00
59419;BME280;45224;50.904;6.038;2023-02-12T03:18:42;101940.47;;;6.88;100.00
59419;BME280;45224;50.904;6.038;2023-02-12T03:20:21;101935.25;;;6.87;100.00
59419;BME280;45224;50.904;6.038;2023-02-12T03:22:03;101937.00;;;6.88;100.00
59419;BME280;45224;50.904;6.038;2023-02-12T03:23:44;101937.97;;;6.90;100.00
59419;BME280;45224;50.904;6.038;2023-02-12T03:25:43;101938.84;;;6.90;100.00
59419;BME280;45224;50.904;6.038;2023-02-12T03:27:31;101938.94;;;6.92;100.00
59419;BME280;45224;50.904;6.038;2023-02-12T03:29:03;101941.66;;;6.95;100.00
59419;BME280;45224;50.904;6.038;2023-02-12T03:36:00;101932.31;;;6.97;100.00
59419;BME280;45224;50.904;6.038;2023-02-12T03:37:36;101934.09;;;6.98;100.00
59419;BME280;45224;50.904;6.038;2023-02-12T03:39:18;101935.84;;;6.99;100.00
59419;BME280;45224;50.904;6.038;2023-02-12T03:40:57;101927.31;;;7.00;100.00
59419;BME280;45224;50.904;6.038;2023-02-12T03:42:50;101937.63;;;7.00;100.00
59419;BME280;45224;50.904;6.038;2023-02-12T03:46:18;101940.88;;;6.96;100.00
59419;BME280;45224;50.904;6.038;2023-02-12T03:48:17;101939.09;;;6.95;100.00
59419;BME280;45224;50.904;6.038;2023-02-12T03:51:33;101940.88;;;6.96;100.00
59419;BME280;45224;50.904;6.038;2023-02-12T03:53:05;101936.66;;;6.98;100.00
59419;BME280;45224;50.904;6.038;2023-02-12T03:54:36;101937.69;;;7.02;100.00
59419;BME280;45224;50.904;6.038;2023-02-12T03:56:11;101936.91;;;7.03;100.00
59419;BME280;45224;50.904;6.038;2023-02-12T03:57:49;101938.72;;;7.05;100.00
59419;BME280;45224;50.904;6.038;2023-02-12T03:59:23;101939.53;;;7.04;100.00
59419;BME280;45224;50.904;6.038;2023-02-12T04:00:54;101938.41;;;6.99;100.00
59419;BME280;45224;50.904;6.038;2023-02-12T04:02:24;101948.69;;;6.99;100.00
59419;BME280;45224;50.904;6.038;2023-02-12T04:03:55;101934.41;;;7.04;100.00
59419;BME280;45224;50.904;6.038;2023-02-12T04:05:26;101947.50;;;7.09;100.00
59419;BME280;45224;50.904;6.038;2023-02-12T04:06:57;101947.50;;;7.09;100.00
59419;BME280;45224;50.904;6.038;2023-02-12T04:08:29;101947.50;;;7.09;100.00
59419;BME280;45224;50.904;6.038;2023-02-12T04:10:00;101950.94;;;7.09;100.00
59419;BME280;45224;50.904;6.038;2023-02-12T04:13:40;101950.09;;;7.10;100.00
59419;BME280;45224;50.904;6.038;2023-02-12T04:17:29;101941.75;;;7.15;100.00
59419;BME280;45224;50.904;6.038;2023-02-12T04:19:01;101946.88;;;7.15;100.00
59419;BME280;45224;50.904;6.038;2023-02-12T04:22:38;101955.41;;;7.13;100.00
59419;BME280;45224;50.904;6.038;2023-02-12T04:24:18;101956.94;;;7.10;100.00
59419;BME280;45224;50.904;6.038;2023-02-12T04:27:58;101956.06;;;7.09;100.00
59419;BME280;45224;50.904;6.038;2023-02-12T04:33:10;101950.84;;;7.08;100.00
59419;BME280;45224;50.904;6.038;2023-02-12T04:36:33;101946.75;;;7.11;100.00
59419;BME280;45224;50.904;6.038;2023-02-12T04:38:24;101953.66;;;7.12;100.00
59419;BME280;45224;50.904;6.038;2023-02-12T04:39:57;101953.50;;;7.09;100.00
59419;BME280;45224;50.904;6.038;2023-02-12T04:41:30;101945.78;;;7.09;100.00
59419;BME280;45224;50.904;6.038;2023-02-12T04:43:01;101953.66;;;7.12;100.00
59419;BME280;45224;50.904;6.038;2023-02-12T04:44:33;101958.81;;;7.12;100.00
59419;BME280;45224;50.904;6.038;2023-02-12T04:46:05;101956.16;;;7.11;100.00
59419;BME280;45224;50.904;6.038;2023-02-12T04:47:37;101961.53;;;7.16;100.00
59419;BME280;45224;50.904;6.038;2023-02-12T04:49:13;101961.59;;;7.17;100.00
59419;BME280;45224;50.904;6.038;2023-02-12T04:50:44;101966.66;;;7.16;100.00
59419;BME280;45224;50.904;6.038;2023-02-12T04:52:15;101964.19;;;7.17;100.00
59419;BME280;45224;50.904;6.038;2023-02-12T04:53:46;101965.03;;;7.18;100.00
59419;BME280;45224;50.904;6.038;2023-02-12T04:55:17;101967.63;;;7.18;100.00
59419;BME280;45224;50.904;6.038;2023-02-12T04:56:48;101961.59;;;7.17;100.00
59419;BME280;45224;50.904;6.038;2023-02-12T04:58:19;101977.75;;;7.15;100.00
59419;BME280;45224;50.904;6.038;2023-02-12T04:59:49;101975.97;;;7.13;100.00
59419;BME280;45224;50.904;6.038;2023-02-12T05:01:19;101958.81;;;7.12;100.00
59419;BME280;45224;50.904;6.038;2023-02-12T05:02:50;101964.97;;;7.16;100.00
59419;BME280;45224;50.904;6.038;2023-02-12T05:04:20;101966.75;;;7.17;100.00
59419;BME280;45224;50.904;6.038;2023-02-12T05:05:51;101965.03;;;7.18;100.00
59419;BME280;45224;50.904;6.038;2023-02-12T05:07:21;101969.25;;;7.16;100.00
59419;BME280;45224;50.904;6.038;2023-02-12T05:08:52;101959.09;;;7.19;100.00
59419;BME280;45224;50.904;6.038;2023-02-12T05:10:23;101958.19;;;7.18;100.00
59419;BME280;45224;50.904;6.038;2023-02-12T05:11:53;101955.56;;;7.17;100.00
59419;BME280;45224;50.904;6.038;2023-02-12T05:13:24;101965.84;;;7.17;100.00
59419;BME280;45224;50.904;6.038;2023-02-12T05:14:54;101963.13;;;7.13;100.00
59419;BME280;45224;50.904;6.038;2023-02-12T05:16:25;101965.69;;;7.13;100.00
59419;BME280;45224;50.904;6.038;2023-02-12T05:17:55;101974.25;;;7.12;100.00
59419;BME280;45224;50.904;6.038;2023-02-12T05:19:26;101964.66;;;7.10;100.00
59419;BME280;45224;50.904;6.038;2023-02-12T05:20:57;101972.63;;;7.15;100.00
59419;BME280;45224;50.904;6.038;2023-02-12T05:22:28;101963.19;;;7.15;100.00
59419;BME280;45224;50.904;6.038;2023-02-12T05:24:00;101966.53;;;7.12;100.00
59419;BME280;45224;50.904;6.038;2023-02-12T05:25:31;101962.25;;;7.13;100.00
59419;BME280;45224;50.904;6.038;2023-02-12T05:27:01;101960.53;;;7.13;100.00
59419;BME280;45224;50.904;6.038;2023-02-12T05:28:32;101974.41;;;7.16;100.00
59419;BME280;45224;50.904;6.038;2023-02-12T05:30:03;101969.09;;;7.12;100.00
59419;BME280;45224;50.904;6.038;2023-02-12T05:31:34;101977.75;;;7.15;100.00
59419;BME280;45224;50.904;6.038;2023-02-12T05:33:05;101972.63;;;7.15;100.00
59419;BME280;45224;50.904;6.038;2023-02-12T05:34:36;101973.56;;;7.17;100.00
59419;BME280;45224;50.904;6.038;2023-02-12T05:36:09;101974.41;;;7.16;100.00
59419;BME280;45224;50.904;6.038;2023-02-12T05:37:40;101965.84;;;7.17;100.00
59419;BME280;45224;50.904;6.038;2023-02-12T05:39:10;101978.78;;;7.18;100.00
59419;BME280;45224;50.904;6.038;2023-02-12T05:40:40;101971.06;;;7.18;100.00
59419;BME280;45224;50.904;6.038;2023-02-12T05:42:12;101982.19;;;7.17;100.00
59419;BME280;45224;50.904;6.038;2023-02-12T05:43:42;101982.34;;;7.20;100.00
59419;BME280;45224;50.904;6.038;2023-02-12T05:45:15;101982.19;;;7.17;100.00
59419;BME280;45224;50.904;6.038;2023-02-12T05:46:45;101983.78;;;7.15;100.00
59419;BME280;45224;50.904;6.038;2023-02-12T05:48:16;101974.16;;;7.11;100.00
59419;BME280;45224;50.904;6.038;2023-02-12T05:49:46;101980.97;;;7.10;100.00
59419;BME280;45224;50.904;6.038;2023-02-12T05:51:19;101979.22;;;7.09;100.00
59419;BME280;45224;50.904;6.038;2023-02-12T05:52:51;101974.88;;;7.08;100.00
59419;BME280;45224;50.904;6.038;2023-02-12T05:54:21;101981.81;;;7.09;100.00
59419;BME280;45224;50.904;6.038;2023-02-12T05:55:51;101974.97;;;7.10;100.00
59419;BME280;45224;50.904;6.038;2023-02-12T05:57:22;101977.75;;;7.15;100.00
59419;BME280;45224;50.904;6.038;2023-02-12T05:59:04;101975.09;;;7.13;100.00
59419;BME280;45224;50.904;6.038;2023-02-12T06:00:35;101983.69;;;7.13;100.00
59419;BME280;45224;50.904;6.038;2023-02-12T06:02:06;101974.09;;;7.09;100.00
59419;BME280;45224;50.904;6.038;2023-02-12T06:03:36;101980.19;;;7.11;100.00
59419;BME280;45224;50.904;6.038;2023-02-12T06:05:07;101982.75;;;7.11;100.00
59419;BME280;45224;50.904;6.038;2023-02-12T06:06:38;101979.38;;;7.12;100.00
59419;BME280;45224;50.904;6.038;2023-02-12T06:08:11;101984.38;;;7.09;100.00
59419;BME280;45224;50.904;6.038;2023-02-12T06:09:41;101989.66;;;7.12;100.00
59419;BME280;45224;50.904;6.038;2023-02-12T06:11:13;101986.13;;;7.10;100.00
59419;BME280;45224;50.904;6.038;2023-02-12T06:12:43;101985.16;;;7.08;100.00
59419;BME280;45224;50.904;6.038;2023-02-12T06:14:16;101986.00;;;7.07;100.00
59419;BME280;45224;50.904;6.038;2023-02-12T06:15:47;101988.66;;;7.09;100.00
59419;BME280;45224;50.904;6.038;2023-02-12T06:17:18;101982.44;;;7.05;100.00
59419;BME280;45224;50.904;6.038;2023-02-12T06:18:49;101982.59;;;7.08;100.00
59419;BME280;45224;50.904;6.038;2023-02-12T06:20:19;101989.53;;;7.09;100.00
59419;BME280;45224;50.904;6.038;2023-02-12T06:21:50;101992.88;;;7.08;100.00
59419;BME280;45224;50.904;6.038;2023-02-12T06:23:22;101994.81;;;7.12;100.00
59419;BME280;45224;50.904;6.038;2023-02-12T06:24:52;101989.59;;;7.11;100.00
59419;BME280;45224;50.904;6.038;2023-02-12T06:26:23;101991.25;;;7.10;100.00
59419;BME280;45224;50.904;6.038;2023-02-12T06:27:54;101992.72;;;7.05;100.00
59419;BME280;45224;50.904;6.038;2023-02-12T06:29:24;101986.94;;;7.09;100.00
59419;BME280;45224;50.904;6.038;2023-02-12T06:30:55;101992.00;;;7.08;100.00
59419;BME280;45224;50.904;6.038;2023-02-12T06:32:25;101995.31;;;7.05;100.00
59419;BME280;45224;50.904;6.038;2023-02-12T06:33:58;101996.06;;;7.03;100.00
59419;BME280;45224;50.904;6.038;2023-02-12T06:35:29;101996.94;;;7.03;100.00
59419;BME280;45224;50.904;6.038;2023-02-12T06:37:00;101996.94;;;7.03;100.00
59419;BME280;45224;50.904;6.038;2023-02-12T06:38:33;101993.56;;;7.04;100.00
59419;BME280;45224;50.904;6.038;2023-02-12T06:40:04;101988.91;;;6.97;100.00
59419;BME280;45224;50.904;6.038;2023-02-12T06:41:35;101991.56;;;6.99;100.00
59419;BME280;45224;50.904;6.038;2023-02-12T06:43:06;101997.88;;;7.05;100.00
59419;BME280;45224;50.904;6.038;2023-02-12T06:44:36;101996.13;;;7.04;100.00
59419;BME280;45224;50.904;6.038;2023-02-12T06:46:07;101991.84;;;7.05;100.00
59419;BME280;45224;50.904;6.038;2023-02-12T06:47:38;101996.13;;;7.04;100.00
59419;BME280;45224;50.904;6.038;2023-02-12T06:49:10;102001.03;;;7.00;100.00
59419;BME280;45224;50.904;6.038;2023-02-12T06:50:41;102001.13;;;7.01;100.00
59419;BME280;45224;50.904;6.038;2023-02-12T06:52:12;102001.13;;;7.01;100.00
59419;BME280;45224;50.904;6.038;2023-02-12T06:53:43;102002.00;;;7.02;100.00
59419;BME280;45224;50.904;6.038;2023-02-12T06:55:14;102006.25;;;7.01;100.00
59419;BME280;45224;50.904;6.038;2023-02-12T06:56:45;102001.13;;;7.01;100.00
59419;BME280;45224;50.904;6.038;2023-02-12T06:58:16;102008.00;;;7.02;100.00
59419;BME280;45224;50.904;6.038;2023-02-12T06:59:46;102003.69;;;7.01;100.00
59419;BME280;45224;50.904;6.038;2023-02-12T07:01:18;102006.25;;;7.01;100.00
59419;BME280;45224;50.904;6.038;2023-02-12T07:02:53;102011.56;;;7.04;100.00
59419;BME280;45224;50.904;6.038;2023-02-12T07:04:24;102011.50;;;7.03;100.00
59419;BME280;45224;50.904;6.038;2023-02-12T07:05:54;102007.28;;;7.05;100.00
59419;BME280;45224;50.904;6.038;2023-02-12T07:07:25;102013.47;;;7.08;100.00
59419;BME280;45224;50.904;6.038;2023-02-12T07:08:56;102016.88;;;7.07;100.00
59419;BME280;45224;50.904;6.038;2023-02-12T07:10:26;102015.97;;;7.07;100.00
59419;BME280;45224;50.904;6.038;2023-02-12T07:11:58;102014.06;;;7.03;100.00
59419;BME280;45224;50.904;6.038;2023-02-12T07:13:28;102013.31;;;7.05;100.00
59419;BME280;45224;50.904;6.038;2023-02-12T07:14:59;102010.81;;;7.07;100.00
59419;BME280;45224;50.904;6.038;2023-02-12T07:16:29;102011.72;;;7.07;100.00
59419;BME280;45224;50.904;6.038;2023-02-12T07:18:00;102020.22;;;7.06;100.00
59419;BME280;45224;50.904;6.038;2023-02-12T07:19:30;102023.75;;;7.08;100.00
59419;BME280;45224;50.904;6.038;2023-02-12T07:21:02;102022.00;;;7.07;100.00
59419;BME280;45224;50.904;6.038;2023-02-12T07:22:35;102028.03;;;7.08;100.00
59419;BME280;45224;50.904;6.038;2023-02-12T07:24:06;102012.44;;;7.05;100.00
59419;BME280;45224;50.904;6.038;2023-02-12T07:25:37;102022.88;;;7.08;100.00
59419;BME280;45224;50.904;6.038;2023-02-12T07:27:08;102017.81;;;7.09;100.00
59419;BME280;45224;50.904;6.038;2023-02-12T07:28:39;102025.69;;;7.12;100.00
59419;BME280;45224;50.904;6.038;2023-02-12T07:30:10;102030.00;;;7.13;100.00
59419;BME280;45224;50.904;6.038;2023-02-12T07:31:40;102030.84;;;7.12;100.00
59419;BME280;45224;50.904;6.038;2023-02-12T07:33:11;102034.19;;;7.11;100.00
59419;BME280;45224;50.904;6.038;2023-02-12T07:34:41;102036.94;;;7.15;100.00
59419;BME280;45224;50.904;6.038;2023-02-12T07:36:19;102043.19;;;7.20;100.00
59419;BME280;45224;50.904;6.038;2023-02-12T07:37:49;102037.09;;;7.18;100.00
59419;BME280;45224;50.904;6.038;2023-02-12T07:39:20;102038.03;;;7.20;100.00
59419;BME280;45224;50.904;6.038;2023-02-12T07:40:50;102041.44;;;7.19;100.00
59419;BME280;45224;50.904;6.038;2023-02-12T07:42:21;102043.19;;;7.20;100.00
59419;BME280;45224;50.904;6.038;2023-02-12T07:43:58;102036.28;;;7.19;100.00
59419;BME280;45224;50.904;6.038;2023-02-12T07:45:29;102038.78;;;7.17;100.00
59419;BME280;45224;50.904;6.038;2023-02-12T07:46:59;102044.97;;;7.21;100.00
59419;BME280;45224;50.904;6.038;2023-02-12T07:48:30;102037.97;;;7.18;100.00
59419;BME280;45224;50.904;6.038;2023-02-12T07:50:00;102043.34;;;7.23;100.00
59419;BME280;45224;50.904;6.038;2023-02-12T07:51:34;102042.53;;;7.24;100.00
59419;BME280;45224;50.904;6.038;2023-02-12T07:53:05;102043.50;;;7.26;100.00
59419;BME280;45224;50.904;6.038;2023-02-12T07:54:36;102044.44;;;7.28;100.00
59419;BME280;45224;50.904;6.038;2023-02-12T07:56:25;102037.63;;;7.28;100.00
59419;BME280;45224;50.904;6.038;2023-02-12T07:57:59;102044.50;;;7.29;100.00
59419;BME280;45224;50.904;6.038;2023-02-12T07:59:30;102034.16;;;7.28;100.00
59419;BME280;45224;50.904;6.038;2023-02-12T08:01:10;102039.38;;;7.29;100.00
59419;BME280;45224;50.904;6.038;2023-02-12T08:02:41;102039.22;;;7.26;100.00
59419;BME280;45224;50.904;6.038;2023-02-12T08:04:13;102038.50;;;7.29;100.00
59419;BME280;45224;50.904;6.038;2023-02-12T08:05:44;102042.94;;;7.31;100.00
59419;BME280;45224;50.904;6.038;2023-02-12T08:07:14;102035.94;;;7.29;100.00
59419;BME280;45224;50.904;6.038;2023-02-12T08:08:45;102047.16;;;7.31;100.00
59419;BME280;45224;50.904;6.038;2023-02-12T08:10:16;102045.41;;;7.30;100.00
59419;BME280;45224;50.904;6.038;2023-02-12T08:11:52;102033.19;;;7.26;100.00
59419;BME280;45224;50.904;6.038;2023-02-12T08:13:22;102042.94;;;7.31;100.00
59419;BME280;45224;50.904;6.038;2023-02-12T08:14:53;102045.53;;;7.33;100.00
59419;BME280;45224;50.904;6.038;2023-02-12T08:16:25;102045.53;;;7.33;100.00
59419;BME280;45224;50.904;6.038;2023-02-12T08:17:56;102041.22;;;7.32;100.00
59419;BME280;45224;50.904;6.038;2023-02-12T08:19:26;102043.06;;;7.35;100.00
59419;BME280;45224;50.904;6.038;2023-02-12T08:21:04;102043.88;;;7.34;100.00
59419;BME280;45224;50.904;6.038;2023-02-12T08:22:35;102046.59;;;7.37;100.00
59419;BME280;45224;50.904;6.038;2023-02-12T08:24:06;102049.25;;;7.38;100.00
59419;BME280;45224;50.904;6.038;2023-02-12T08:25:36;102043.13;;;7.36;100.00
59419;BME280;45224;50.904;6.038;2023-02-12T08:27:07;102045.84;;;7.39;100.00
59419;BME280;45224;50.904;6.038;2023-02-12T08:28:41;102045.84;;;7.39;100.00
59419;BME280;45224;50.904;6.038;2023-02-12T08:30:12;102056.16;;;7.39;100.00
59419;BME280;45224;50.904;6.038;2023-02-12T08:31:44;102052.94;;;7.43;100.00
59419;BME280;45224;50.904;6.038;2023-02-12T08:33:15;102050.34;;;7.43;100.00
59419;BME280;45224;50.904;6.038;2023-02-12T08:34:45;102048.72;;;7.45;100.00
59419;BME280;45224;50.904;6.038;2023-02-12T08:36:19;102054.81;;;7.47;100.00
59419;BME280;45224;50.904;6.038;2023-02-12T08:37:50;102049.69;;;7.47;100.00
59419;BME280;45224;50.904;6.038;2023-02-12T08:39:22;102051.47;;;7.48;100.00
59419;BME280;45224;50.904;6.038;2023-02-12T08:40:53;102047.19;;;7.49;100.00
59419;BME280;45224;50.904;6.038;2023-02-12T08:42:23;102048.25;;;7.53;100.00
59419;BME280;45224;50.904;6.038;2023-02-12T08:43:57;102051.75;;;7.55;100.00
59419;BME280;45224;50.904;6.038;2023-02-12T08:45:28;102052.72;;;7.57;100.00
59419;BME280;45224;50.904;6.038;2023-02-12T08:46:58;102040.59;;;7.54;100.00
59419;BME280;45224;50.904;6.038;2023-02-12T08:48:29;102046.75;;;7.58;100.00
59419;BME280;45224;50.904;6.038;2023-02-12T08:49:59;102055.34;;;7.58;100.00